createdAt,value
2019-03-19T00:01:07.191Z,6.35
2019-03-19T00:03:13.903Z,7.12
2019-03-19T00:05:20.584Z,6.70
2019-03-19T00:07:27.237Z,7.87
2019-03-19T00:09:33.896Z,7.25
2019-03-19T00:11:41.685Z,7.28
2019-03-19T00:13:48.340Z,6.97
2019-03-19T00:15:55.064Z,7.35
2019-03-19T00:18:01.739Z,7.08
2019-03-19T00:20:16.669Z,7.97
2019-03-19T00:22:25.686Z,7.47
2019-03-19T00:24:31.995Z,7.40
2019-03-19T00:26:38.655Z,7.05
2019-03-19T00:28:45.250Z,7.50
2019-03-19T00:30:51.865Z,7.55
2019-03-19T00:32:58.460Z,7.40
2019-03-19T00:35:07.562Z,7.30
2019-03-19T00:39:19.876Z,7.20
2019-03-19T00:41:26.600Z,7.78
2019-03-19T00:43:33.278Z,7.40
2019-03-19T00:45:39.937Z,7.40
2019-03-19T00:47:46.614Z,7.20
2019-03-19T00:49:53.303Z,7.87
2019-03-19T00:51:59.960Z,7.62
2019-03-19T00:54:06.610Z,7.37
2019-03-19T00:56:13.297Z,8.23
2019-03-19T00:58:19.940Z,7.90
2019-03-19T01:00:26.596Z,8.30
2019-03-19T01:02:33.358Z,8.30
2019-03-19T01:04:40.009Z,7.62
2019-03-19T01:06:46.596Z,8.78
2019-03-19T01:08:53.291Z,8.05
2019-03-19T01:10:59.881Z,8.00
2019-03-19T01:13:06.481Z,7.78
2019-03-19T01:15:14.766Z,8.28
2019-03-19T01:17:21.416Z,7.92
2019-03-19T01:19:28.067Z,7.97
2019-03-19T01:21:34.750Z,7.33
2019-03-19T01:23:41.343Z,7.70
2019-03-19T01:25:55.353Z,7.85
2019-03-19T01:27:56.458Z,8.90
2019-03-19T01:30:03.601Z,7.25
2019-03-19T01:32:10.267Z,7.70
2019-03-19T01:34:16.952Z,7.17
2019-03-19T01:36:23.534Z,7.70
2019-03-19T01:38:30.121Z,7.28
2019-03-19T01:40:36.815Z,7.28
2019-03-19T01:42:43.486Z,7.65
2019-03-19T01:44:50.151Z,7.37
2019-03-19T01:46:56.852Z,6.67
2019-03-19T01:49:03.516Z,7.10
2019-03-19T01:51:10.171Z,7.60
2019-03-19T01:53:16.977Z,6.83
2019-03-19T01:55:25.744Z,6.62
2019-03-19T01:57:32.554Z,7.37
2019-03-19T01:59:39.276Z,7.72
2019-03-19T02:01:45.979Z,7.65
2019-03-19T02:03:52.646Z,7.22
2019-03-19T02:05:59.334Z,7.47
2019-03-19T02:08:06.064Z,7.50
2019-03-19T02:10:15.603Z,8.03
2019-03-19T02:12:22.293Z,7.30
2019-03-19T02:14:28.961Z,8.05
2019-03-19T02:16:35.548Z,7.55
2019-03-19T02:18:42.233Z,8.20
2019-03-19T02:20:48.885Z,7.35
2019-03-19T02:22:55.550Z,8.00
2019-03-19T02:25:02.591Z,8.75
2019-03-19T02:27:09.246Z,8.05
2019-03-19T02:29:15.911Z,7.45
2019-03-19T02:31:22.759Z,7.15
2019-03-19T02:33:29.424Z,6.67
2019-03-19T02:35:36.073Z,6.83
2019-03-19T02:37:42.763Z,7.15
2019-03-19T02:39:49.498Z,7.92
2019-03-19T02:41:56.168Z,7.50
2019-03-19T02:44:02.891Z,7.53
2019-03-19T02:46:09.559Z,7.80
2019-03-19T02:48:16.222Z,7.08
2019-03-19T02:50:23.095Z,7.53
2019-03-19T02:52:29.706Z,7.70
2019-03-19T02:54:36.355Z,7.22
2019-03-19T02:56:43.120Z,8.20
2019-03-19T02:58:49.766Z,7.47
2019-03-19T03:00:56.445Z,6.97
2019-03-19T03:03:03.144Z,7.42
2019-03-19T03:05:18.950Z,7.78
2019-03-19T03:07:25.685Z,7.15
2019-03-19T03:09:32.378Z,6.97
2019-03-19T03:11:39.050Z,7.25
2019-03-19T03:13:45.711Z,6.58
2019-03-19T03:15:52.399Z,6.97
2019-03-19T03:17:59.132Z,7.55
2019-03-19T03:20:12.576Z,7.92
2019-03-19T03:22:19.313Z,7.10
2019-03-19T03:24:26.090Z,7.05
2019-03-19T03:26:46.476Z,7.47
2019-03-19T03:28:41.080Z,7.33
2019-03-19T03:30:47.677Z,7.10
2019-03-19T03:32:54.417Z,6.80
2019-03-19T03:35:01.140Z,6.35
2019-03-19T03:37:07.866Z,6.67
2019-03-19T03:39:14.461Z,7.00
2019-03-19T03:41:21.082Z,6.72
2019-03-19T03:43:27.742Z,6.50
2019-03-19T03:45:34.538Z,6.00
2019-03-19T03:47:41.298Z,6.08
2019-03-19T03:49:47.946Z,6.58
2019-03-19T03:51:54.625Z,6.53
2019-03-19T03:54:01.300Z,6.78
2019-03-19T03:56:07.957Z,6.15
2019-03-19T03:58:14.690Z,6.42
2019-03-19T04:00:26.031Z,6.53
2019-03-19T04:02:32.698Z,6.25
2019-03-19T04:04:39.358Z,6.78
2019-03-19T04:06:46.046Z,7.15
2019-03-19T04:08:52.646Z,7.20
2019-03-19T04:10:59.304Z,7.00
2019-03-19T04:13:05.997Z,6.55
2019-03-19T04:15:17.321Z,6.45
2019-03-19T04:17:24.112Z,7.00
2019-03-19T04:19:30.795Z,6.55
2019-03-19T04:21:37.454Z,6.58
2019-03-19T04:23:44.112Z,6.97
2019-03-19T04:25:50.809Z,6.37
2019-03-19T04:27:58.548Z,6.50
2019-03-19T04:30:12.734Z,6.55
2019-03-19T04:32:20.689Z,6.60
2019-03-19T04:34:27.351Z,6.42
2019-03-19T04:36:34.019Z,6.33
2019-03-19T04:38:40.640Z,6.85
2019-03-19T04:40:49.541Z,6.60
2019-03-19T04:42:55.532Z,6.53
2019-03-19T04:45:02.217Z,6.10
2019-03-19T04:47:08.886Z,6.30
2019-03-19T04:49:15.531Z,5.90
2019-03-19T04:51:22.213Z,5.50
2019-03-19T04:53:28.806Z,5.75
2019-03-19T04:55:35.461Z,6.05
2019-03-19T04:57:42.147Z,5.83
2019-03-19T04:59:49.815Z,5.85
2019-03-19T05:01:56.560Z,6.28
2019-03-19T05:04:03.205Z,5.55
2019-03-19T05:06:09.840Z,6.05
2019-03-19T05:08:16.484Z,6.05
2019-03-19T05:10:23.226Z,5.83
2019-03-19T05:12:29.881Z,5.55
2019-03-19T05:14:36.535Z,6.60
2019-03-19T05:16:43.219Z,5.60
2019-03-19T05:18:49.819Z,4.65
2019-03-19T05:20:56.485Z,5.78
2019-03-19T05:23:03.118Z,4.72
2019-03-19T05:25:11.005Z,5.75
2019-03-19T05:27:17.669Z,4.95
2019-03-19T05:29:24.347Z,4.75
2019-03-19T05:31:31.014Z,5.25
2019-03-19T05:33:37.830Z,5.15
2019-03-19T05:35:44.534Z,5.28
2019-03-19T05:37:51.193Z,4.22
2019-03-19T05:39:58.846Z,4.17
2019-03-19T05:42:05.533Z,4.33
2019-03-19T05:44:12.122Z,4.67
2019-03-19T05:46:18.716Z,4.12
2019-03-19T05:48:25.406Z,5.00
2019-03-19T05:50:31.993Z,4.95
2019-03-19T05:52:38.582Z,5.40
2019-03-19T05:54:45.270Z,4.67
2019-03-19T05:56:51.994Z,4.83
2019-03-19T05:58:58.592Z,4.60
2019-03-19T06:01:05.430Z,4.87
2019-03-19T06:03:12.089Z,5.03
2019-03-19T06:05:20.893Z,4.95
2019-03-19T06:07:27.150Z,6.22
2019-03-19T06:09:33.812Z,5.12
2019-03-19T06:11:40.480Z,4.87
2019-03-19T06:13:47.242Z,4.87
2019-03-19T06:15:53.915Z,4.70
2019-03-19T06:18:00.509Z,5.20
2019-03-19T06:20:14.574Z,6.25
2019-03-19T06:22:21.259Z,5.67
2019-03-19T06:24:27.930Z,5.70
2019-03-19T06:26:34.689Z,5.25
2019-03-19T06:28:41.432Z,6.37
2019-03-19T06:30:48.464Z,6.12
2019-03-19T06:32:55.096Z,6.60
2019-03-19T06:35:01.761Z,5.97
2019-03-19T06:37:08.529Z,5.37
2019-03-19T06:39:15.237Z,5.35
2019-03-19T06:41:21.890Z,5.70
2019-03-19T06:43:28.492Z,5.50
2019-03-19T06:45:35.189Z,5.28
2019-03-19T06:47:41.928Z,4.72
2019-03-19T06:49:48.561Z,4.92
2019-03-19T06:51:55.317Z,5.90
2019-03-19T06:54:02.024Z,5.37
2019-03-19T06:56:08.708Z,4.67
2019-03-19T06:58:15.426Z,5.00
2019-03-19T07:00:23.423Z,5.15
2019-03-19T07:02:30.107Z,4.95
2019-03-19T07:04:36.787Z,4.62
2019-03-19T07:06:43.393Z,4.90
2019-03-19T07:08:49.988Z,6.05
2019-03-19T07:10:56.692Z,5.12
2019-03-19T07:13:03.429Z,5.22
2019-03-19T07:15:16.468Z,4.35
2019-03-19T07:17:24.796Z,4.47
2019-03-19T07:19:31.500Z,4.15
2019-03-19T07:21:38.167Z,4.40
2019-03-19T07:23:44.866Z,4.58
2019-03-19T07:25:51.526Z,4.90
2019-03-19T07:27:58.131Z,4.90
2019-03-19T07:30:07.946Z,4.70
2019-03-19T07:32:15.521Z,4.00
2019-03-19T07:34:22.190Z,4.50
2019-03-19T07:36:28.807Z,3.92
2019-03-19T07:38:35.464Z,4.37
2019-03-19T07:40:42.119Z,4.85
2019-03-19T07:42:48.808Z,4.90
2019-03-19T07:44:55.468Z,4.80
2019-03-19T07:47:02.074Z,4.97
2019-03-19T07:49:09.255Z,5.85
2019-03-19T07:51:15.917Z,5.83
2019-03-19T07:53:22.587Z,5.22
2019-03-19T07:55:29.197Z,5.35
2019-03-19T07:57:35.925Z,6.20
2019-03-19T07:59:42.600Z,5.17
2019-03-19T08:01:49.281Z,6.28
2019-03-19T08:03:56.090Z,4.95
2019-03-19T08:06:02.769Z,5.40
2019-03-19T08:08:09.520Z,5.92
2019-03-19T08:10:20.730Z,8.13
2019-03-19T08:12:27.365Z,6.62
2019-03-19T08:14:34.057Z,6.75
2019-03-19T08:16:40.725Z,6.92
2019-03-19T08:18:47.389Z,6.95
2019-03-19T08:20:54.078Z,7.08
2019-03-19T08:23:01.476Z,7.40
2019-03-19T08:25:11.248Z,6.60
2019-03-19T08:27:17.933Z,6.42
2019-03-19T08:29:24.524Z,7.10
2019-03-19T08:31:31.196Z,6.33
2019-03-19T08:33:37.880Z,6.53
2019-03-19T08:35:44.545Z,7.25
2019-03-19T08:37:51.213Z,7.15
2019-03-19T08:39:57.898Z,6.58
2019-03-19T08:42:04.629Z,6.60
2019-03-19T08:44:11.293Z,7.00
2019-03-19T08:46:17.982Z,6.65
2019-03-19T08:48:24.670Z,6.70
2019-03-19T08:50:32.336Z,6.33
2019-03-19T08:52:40.025Z,6.22
2019-03-19T08:54:46.690Z,6.53
2019-03-19T08:56:53.358Z,6.37
2019-03-19T08:59:05.897Z,5.87
2019-03-19T09:01:08.414Z,5.78
2019-03-19T09:03:15.077Z,5.90
2019-03-19T09:05:22.841Z,6.37
2019-03-19T09:07:29.501Z,5.22
2019-03-19T09:09:36.171Z,6.22
2019-03-19T09:11:42.862Z,6.72
2019-03-19T09:13:49.525Z,6.25
2019-03-19T09:15:56.288Z,7.45
2019-03-19T09:18:05.118Z,6.00
2019-03-19T09:20:18.766Z,7.03
2019-03-19T09:22:29.560Z,6.28
2019-03-19T09:24:33.807Z,6.75
2019-03-19T09:26:40.481Z,6.60
2019-03-19T09:28:47.146Z,5.97
2019-03-19T09:30:53.835Z,5.65
2019-03-19T09:33:00.494Z,6.03
2019-03-19T09:35:07.566Z,4.90
2019-03-19T09:37:14.327Z,6.12
2019-03-19T09:39:20.923Z,6.00
2019-03-19T09:41:27.583Z,5.45
2019-03-19T09:43:34.280Z,5.72
2019-03-19T09:45:40.944Z,5.22
2019-03-19T09:47:48.213Z,5.70
2019-03-19T09:49:54.901Z,4.80
2019-03-19T09:52:01.509Z,4.10
2019-03-19T09:54:08.183Z,4.80
2019-03-19T09:56:15.990Z,3.77
2019-03-19T09:58:22.656Z,3.72
2019-03-19T10:00:29.247Z,3.90
2019-03-19T10:02:36.258Z,3.72
2019-03-19T10:04:42.918Z,3.90
2019-03-19T10:06:49.576Z,3.77
2019-03-19T10:08:56.530Z,4.20
2019-03-19T10:11:03.244Z,4.15
2019-03-19T10:13:09.914Z,3.55
2019-03-19T10:15:17.262Z,3.72
2019-03-19T10:17:23.926Z,3.17
2019-03-19T10:19:30.584Z,4.03
2019-03-19T10:21:37.271Z,4.00
2019-03-19T10:23:43.998Z,3.37
2019-03-19T10:25:50.637Z,3.42
2019-03-19T10:27:57.419Z,3.67
2019-03-19T10:30:05.934Z,3.80
2019-03-19T10:32:12.795Z,3.60
2019-03-19T10:34:19.490Z,3.80
2019-03-19T10:36:26.149Z,5.28
2019-03-19T10:38:32.812Z,4.65
2019-03-19T10:40:39.505Z,3.77
2019-03-19T10:42:46.160Z,3.60
2019-03-19T10:44:52.818Z,3.72
2019-03-19T10:46:59.507Z,3.17
2019-03-19T10:49:06.158Z,3.72
2019-03-19T10:51:12.815Z,3.72
2019-03-19T10:53:19.703Z,3.95
2019-03-19T10:55:26.370Z,3.33
2019-03-19T10:57:33.101Z,3.92
2019-03-19T10:59:48.907Z,3.25
2019-03-19T11:01:48.292Z,4.05
2019-03-19T11:03:54.956Z,4.00
2019-03-19T11:06:01.649Z,3.72
2019-03-19T11:08:08.310Z,3.77
2019-03-19T11:10:18.926Z,3.95
2019-03-19T11:12:25.616Z,4.03
2019-03-19T11:14:32.212Z,4.53
2019-03-19T11:16:38.877Z,3.90
2019-03-19T11:18:45.563Z,5.00
2019-03-19T11:20:52.232Z,4.00
2019-03-19T11:22:58.897Z,4.78
2019-03-19T11:25:11.064Z,4.20
2019-03-19T11:27:17.841Z,5.65
2019-03-19T11:29:24.501Z,4.40
2019-03-19T11:31:31.197Z,4.60
2019-03-19T11:33:37.862Z,3.87
2019-03-19T11:35:45.831Z,4.22
2019-03-19T11:37:52.607Z,4.55
2019-03-19T11:39:59.359Z,4.33
2019-03-19T11:42:06.427Z,4.22
2019-03-19T11:44:13.098Z,4.22
2019-03-19T11:46:19.759Z,3.90
2019-03-19T11:48:26.421Z,4.67
2019-03-19T11:50:33.725Z,3.60
2019-03-19T11:52:40.459Z,3.77
2019-03-19T11:54:47.124Z,4.25
2019-03-19T11:56:53.811Z,4.35
2019-03-19T11:59:00.463Z,4.10
2019-03-19T12:01:07.485Z,4.08
2019-03-19T12:03:16.398Z,3.98
2019-03-19T12:05:22.547Z,3.40
2019-03-19T12:07:29.217Z,3.35
2019-03-19T12:09:35.909Z,3.65
2019-03-19T12:11:42.572Z,3.30
2019-03-19T12:13:49.251Z,3.40
2019-03-19T12:15:55.954Z,3.77
2019-03-19T12:18:02.633Z,3.52
2019-03-19T12:20:12.408Z,3.95
2019-03-19T12:22:19.095Z,4.12
2019-03-19T12:24:25.753Z,4.47
2019-03-19T12:26:32.418Z,4.62
2019-03-19T12:28:39.982Z,4.47
2019-03-19T12:30:46.927Z,4.12
2019-03-19T12:32:53.593Z,4.17
2019-03-19T12:35:01.715Z,5.20
2019-03-19T12:37:08.714Z,4.42
2019-03-19T12:39:15.374Z,4.20
2019-03-19T12:41:22.053Z,3.77
2019-03-19T12:43:28.710Z,4.40
2019-03-19T12:45:35.367Z,4.40
2019-03-19T12:47:42.125Z,5.12
2019-03-19T12:49:48.862Z,4.40
2019-03-19T12:51:55.598Z,4.83
2019-03-19T12:54:02.290Z,5.08
2019-03-19T12:56:09.017Z,5.30
2019-03-19T12:58:16.775Z,4.62
2019-03-19T13:00:34.792Z,4.55
2019-03-19T13:02:38.200Z,4.60
2019-03-19T13:04:44.873Z,4.35
2019-03-19T13:06:51.552Z,4.72
2019-03-19T13:08:58.210Z,5.20
2019-03-19T13:11:04.884Z,4.60
2019-03-19T13:13:12.636Z,5.60
2019-03-19T13:15:20.679Z,5.10
2019-03-19T13:17:27.337Z,4.53
2019-03-19T13:19:34.020Z,4.58
2019-03-19T13:21:40.752Z,5.22
2019-03-19T13:23:47.489Z,5.67
2019-03-19T13:25:56.590Z,6.30
2019-03-19T13:28:02.583Z,5.25
2019-03-19T13:30:13.993Z,4.87
2019-03-19T13:32:20.858Z,4.50
2019-03-19T13:34:27.589Z,4.75
2019-03-19T13:36:34.315Z,5.10
2019-03-19T13:38:41.000Z,6.08
2019-03-19T13:40:47.906Z,5.53
2019-03-19T13:42:54.556Z,5.10
2019-03-19T13:45:01.263Z,5.15
2019-03-19T13:47:07.900Z,5.42
2019-03-19T13:49:14.561Z,4.62
2019-03-19T13:51:21.250Z,5.53
2019-03-19T13:53:28.058Z,5.15
2019-03-19T13:55:34.739Z,5.78
2019-03-19T13:57:41.428Z,5.53
2019-03-19T13:59:48.086Z,5.55
2019-03-19T14:01:54.747Z,5.15
2019-03-19T14:04:01.425Z,6.20
2019-03-19T14:06:08.110Z,5.33
2019-03-19T14:08:14.833Z,5.20
2019-03-19T14:10:22.207Z,5.55
2019-03-19T14:12:28.870Z,5.25
2019-03-19T14:14:35.530Z,5.60
2019-03-19T14:16:42.220Z,5.67
2019-03-19T14:18:48.887Z,6.60
2019-03-19T14:20:55.545Z,6.25
2019-03-19T14:23:02.230Z,7.22
2019-03-19T14:25:11.595Z,7.72
2019-03-19T14:27:19.461Z,7.45
2019-03-19T14:29:26.155Z,6.75
2019-03-19T14:31:32.812Z,6.75
2019-03-19T14:33:39.423Z,6.65
2019-03-19T14:35:46.034Z,5.80
2019-03-19T14:37:52.698Z,6.05
2019-03-19T14:39:59.663Z,6.33
2019-03-19T14:42:06.357Z,5.15
2019-03-19T14:44:13.018Z,5.97
2019-03-19T14:46:19.684Z,6.50
2019-03-19T14:48:26.452Z,6.05
2019-03-19T14:50:33.122Z,5.30
2019-03-19T14:52:39.844Z,6.33
2019-03-19T14:54:46.537Z,5.92
2019-03-19T14:56:53.194Z,5.85
2019-03-19T14:58:59.851Z,6.05
2019-03-19T15:01:06.597Z,6.83
2019-03-19T15:03:14.256Z,5.62
2019-03-19T15:05:21.156Z,5.70
2019-03-19T15:07:27.832Z,6.17
2019-03-19T15:09:34.490Z,5.67
2019-03-19T15:11:41.159Z,6.37
2019-03-19T15:13:47.843Z,6.05
2019-03-19T15:15:55.601Z,6.45
2019-03-19T15:18:02.270Z,6.70
2019-03-19T15:20:22.025Z,6.37
2019-03-19T15:22:32.822Z,6.67
2019-03-19T15:24:37.122Z,6.42
2019-03-19T15:26:43.813Z,6.80
2019-03-19T15:28:50.471Z,6.85
2019-03-19T15:30:57.159Z,7.03
2019-03-19T15:33:03.844Z,6.15
2019-03-19T15:35:12.017Z,6.78
2019-03-19T15:37:18.671Z,7.87
2019-03-19T15:39:25.357Z,7.80
2019-03-19T15:41:32.024Z,7.28
2019-03-19T15:43:38.694Z,6.72
2019-03-19T15:45:45.372Z,7.03
2019-03-19T15:47:52.029Z,6.50
2019-03-19T15:49:58.699Z,6.55
2019-03-19T15:52:05.386Z,7.10
2019-03-19T15:54:13.256Z,7.22
2019-03-19T15:56:19.979Z,7.37
2019-03-19T15:58:26.663Z,7.05
2019-03-19T16:00:33.490Z,6.65
2019-03-19T16:02:40.234Z,7.62
2019-03-19T16:04:46.963Z,7.47
2019-03-19T16:06:53.737Z,7.47
2019-03-19T16:09:00.475Z,6.83
2019-03-19T16:11:08.704Z,7.55
2019-03-19T16:13:15.431Z,7.15
2019-03-19T16:15:24.163Z,8.10
2019-03-19T16:17:31.091Z,7.28
2019-03-19T16:19:37.820Z,7.12
2019-03-19T16:21:44.477Z,6.90
2019-03-19T16:23:51.172Z,7.83
2019-03-19T16:25:57.830Z,7.30
2019-03-19T16:28:04.695Z,8.45
2019-03-19T16:30:19.870Z,9.13
2019-03-19T16:32:26.536Z,10.25
2019-03-19T16:34:34.204Z,11.73
2019-03-19T16:36:40.906Z,10.60
2019-03-19T16:38:47.562Z,11.45
2019-03-19T16:40:54.304Z,12.78
2019-03-19T16:43:01.003Z,15.03
2019-03-19T16:45:11.039Z,14.68
2019-03-19T16:47:17.702Z,17.75
2019-03-19T16:49:24.400Z,19.12
2019-03-19T16:51:31.230Z,16.02
2019-03-19T16:53:37.898Z,15.65
2019-03-19T16:55:44.589Z,16.23
2019-03-19T16:57:51.657Z,15.15
2019-03-19T16:59:58.327Z,18.95
2019-03-19T17:02:05.027Z,20.05
2019-03-19T17:04:12.692Z,26.80
2019-03-19T17:06:19.359Z,25.27
2019-03-19T17:08:26.119Z,27.13
2019-03-19T17:10:34.193Z,27.70
2019-03-19T17:12:42.604Z,20.40
2019-03-19T17:14:49.311Z,22.45
2019-03-19T17:16:55.992Z,15.30
2019-03-19T17:19:04.147Z,14.55
2019-03-19T17:21:11.107Z,16.90
2019-03-19T17:23:17.874Z,21.25
2019-03-19T17:25:28.082Z,20.40
2019-03-19T17:27:35.213Z,23.65
2019-03-19T17:29:41.893Z,24.40
2019-03-19T17:31:48.560Z,23.32
2019-03-19T17:33:55.260Z,20.20
2019-03-19T17:36:02.071Z,29.37
2019-03-19T17:38:09.068Z,27.42
2019-03-19T17:40:17.548Z,21.30
2019-03-19T17:42:24.696Z,20.27
2019-03-19T17:44:31.360Z,16.00
2019-03-19T17:46:38.054Z,15.43
2019-03-19T17:48:44.802Z,14.30
2019-03-19T17:50:55.575Z,19.50
2019-03-19T17:53:02.264Z,16.57
2019-03-19T17:55:12.441Z,21.68
2019-03-19T17:57:19.111Z,19.92
2019-03-19T17:59:25.811Z,29.30
2019-03-19T18:01:32.597Z,29.32
2019-03-19T18:03:39.368Z,34.55
2019-03-19T18:05:46.095Z,24.27
2019-03-19T18:07:52.764Z,20.25
2019-03-19T18:09:59.509Z,21.40
2019-03-19T18:12:06.262Z,23.00
2019-03-19T18:14:12.928Z,22.35
2019-03-19T18:16:19.608Z,26.35
2019-03-19T18:18:26.684Z,24.43
2019-03-19T18:20:33.353Z,24.95
2019-03-19T18:22:40.030Z,16.37
2019-03-19T18:24:46.797Z,16.15
2019-03-19T18:26:53.474Z,15.63
2019-03-19T18:29:02.034Z,15.23
2019-03-19T18:31:08.809Z,15.40
2019-03-19T18:33:17.121Z,15.58
2019-03-19T18:35:23.785Z,16.32
2019-03-19T18:37:30.482Z,15.93
2019-03-19T18:39:37.145Z,17.32
2019-03-19T18:41:44.073Z,15.88
2019-03-19T18:43:51.464Z,15.80
2019-03-19T18:45:58.134Z,16.32
2019-03-19T18:48:04.909Z,16.87
2019-03-19T18:50:22.632Z,16.32
2019-03-19T18:52:29.364Z,15.90
2019-03-19T18:54:36.100Z,17.67
2019-03-19T18:56:42.873Z,17.42
2019-03-19T18:58:49.599Z,17.52
2019-03-19T19:00:57.136Z,18.05
2019-03-19T19:03:03.847Z,19.25
2019-03-19T19:05:15.985Z,18.15
2019-03-19T19:07:22.648Z,22.32
2019-03-19T19:09:29.362Z,22.15
2019-03-19T19:11:36.050Z,20.37
2019-03-19T19:13:42.703Z,18.10
2019-03-19T19:15:49.405Z,17.60
2019-03-19T19:17:56.139Z,17.15
2019-03-19T19:20:02.808Z,20.55
2019-03-19T19:22:09.499Z,21.23
2019-03-19T19:24:24.438Z,20.90
2019-03-19T19:26:59.580Z,21.70
2019-03-19T19:29:09.414Z,20.62
2019-03-19T19:31:16.088Z,20.68
2019-03-19T19:33:22.750Z,25.32
2019-03-19T19:35:31.312Z,23.57
2019-03-19T19:37:38.079Z,23.02
2019-03-19T19:39:46.349Z,23.22
2019-03-19T19:41:54.127Z,24.00
2019-03-19T19:44:00.788Z,24.40
2019-03-19T19:46:07.455Z,23.42
2019-03-19T19:48:14.616Z,21.10
2019-03-19T19:50:23.841Z,22.20
2019-03-19T19:54:36.243Z,19.62
2019-03-19T19:56:42.906Z,20.48
2019-03-19T19:58:49.651Z,19.65
2019-03-19T20:00:57.906Z,19.20
2019-03-19T20:03:12.135Z,18.02
2019-03-19T20:05:13.295Z,18.48
2019-03-19T20:07:19.996Z,18.60
2019-03-19T20:09:26.666Z,19.52
2019-03-19T20:11:33.337Z,17.87
2019-03-19T20:13:40.106Z,17.25
2019-03-19T20:15:46.869Z,18.12
2019-03-19T20:17:53.534Z,19.57
2019-03-19T20:20:01.533Z,17.73
2019-03-19T20:22:09.470Z,18.50
2019-03-19T20:24:16.135Z,18.82
2019-03-19T20:26:22.961Z,17.80
2019-03-19T20:28:29.619Z,18.25
2019-03-19T20:30:36.294Z,19.48
2019-03-19T20:32:43.067Z,17.27
2019-03-19T20:34:49.733Z,17.90
2019-03-19T20:36:56.404Z,17.82
2019-03-19T20:39:03.573Z,17.42
2019-03-19T20:41:10.544Z,18.57
2019-03-19T20:43:17.291Z,17.32
2019-03-19T20:45:25.897Z,21.30
2019-03-19T20:47:33.048Z,19.57
2019-03-19T20:49:47.634Z,18.87
2019-03-19T20:51:49.535Z,18.95
2019-03-19T20:53:56.348Z,18.15
2019-03-19T20:56:03.418Z,18.27
2019-03-19T20:58:10.153Z,18.05
2019-03-19T21:00:18.630Z,18.35
2019-03-19T21:02:25.356Z,20.12
2019-03-19T21:04:32.050Z,19.12
2019-03-19T21:06:39.021Z,18.20
2019-03-19T21:08:45.756Z,19.25
2019-03-19T21:10:52.722Z,20.17
2019-03-19T21:12:59.662Z,16.42
2019-03-19T21:15:11.747Z,17.37
2019-03-19T21:17:18.441Z,17.17
2019-03-19T21:19:25.105Z,15.45
2019-03-19T21:21:34.799Z,15.88
2019-03-19T21:23:41.472Z,16.30
2019-03-19T21:25:48.175Z,17.00
2019-03-19T21:27:55.212Z,18.62
2019-03-19T21:30:02.213Z,17.55
2019-03-19T21:32:09.280Z,18.48
2019-03-19T21:34:15.950Z,18.32
2019-03-19T21:36:23.747Z,18.27
2019-03-19T21:38:31.471Z,20.43
2019-03-19T21:40:38.315Z,18.50
2019-03-19T21:42:45.110Z,18.80
2019-03-19T21:44:51.808Z,19.10
2019-03-19T21:46:58.474Z,18.50
2019-03-19T21:49:06.170Z,19.95
2019-03-19T21:51:13.863Z,18.82
2019-03-19T21:53:20.534Z,18.62
2019-03-19T21:55:27.439Z,17.95
2019-03-19T21:57:34.329Z,18.75
2019-03-19T21:59:41.000Z,17.70
2019-03-19T22:01:48.762Z,18.30
2019-03-19T22:04:03.019Z,16.50
2019-03-19T22:06:03.875Z,17.57
2019-03-19T22:08:10.774Z,18.37
2019-03-19T22:10:19.458Z,19.20
2019-03-19T22:12:26.119Z,18.87
2019-03-19T22:14:32.822Z,18.82
2019-03-19T22:16:39.588Z,19.30
2019-03-19T22:18:47.251Z,18.45
2019-03-19T22:20:53.952Z,19.17
2019-03-19T22:23:00.702Z,18.35
2019-03-19T22:25:13.291Z,19.98
2019-03-19T22:27:19.983Z,19.82
2019-03-19T22:29:26.720Z,18.60
2019-03-19T22:31:33.386Z,18.12
2019-03-19T22:33:40.082Z,17.15
2019-03-19T22:35:46.767Z,17.07
2019-03-19T22:37:53.435Z,18.60
2019-03-19T22:40:00.345Z,18.05
2019-03-19T22:42:07.082Z,18.07
2019-03-19T22:44:13.755Z,18.52
2019-03-19T22:46:21.996Z,19.35
2019-03-19T22:48:30.048Z,17.02
2019-03-19T22:50:36.716Z,17.42
2019-03-19T22:52:44.065Z,16.67
2019-03-19T22:54:50.731Z,16.60
2019-03-19T22:56:57.397Z,16.20
2019-03-19T22:59:04.198Z,16.50
2019-03-19T23:01:11.558Z,16.00
2019-03-19T23:03:19.493Z,16.30
2019-03-19T23:05:26.193Z,16.50
2019-03-19T23:07:32.864Z,17.90
2019-03-19T23:09:39.846Z,16.95
2019-03-19T23:11:46.528Z,17.15
2019-03-19T23:13:53.195Z,17.25
2019-03-19T23:15:59.947Z,17.35
2019-03-19T23:18:06.635Z,17.27
2019-03-19T23:20:15.411Z,17.10
2019-03-19T23:22:22.078Z,16.15
2019-03-19T23:24:28.780Z,17.40
2019-03-19T23:26:35.448Z,17.82
2019-03-19T23:28:42.116Z,17.40
2019-03-19T23:30:48.817Z,16.93
2019-03-19T23:32:55.505Z,16.27
2019-03-19T23:35:02.171Z,16.37
2019-03-19T23:37:09.168Z,17.00
2019-03-19T23:39:15.908Z,17.07
2019-03-19T23:41:22.645Z,16.30
2019-03-19T23:43:29.350Z,17.02
2019-03-19T23:45:36.006Z,18.52
2019-03-19T23:47:42.743Z,16.87
2019-03-19T23:49:49.511Z,17.25
2019-03-19T23:51:56.226Z,17.65
2019-03-19T23:54:02.896Z,17.50
2019-03-19T23:56:09.590Z,17.05
2019-03-19T23:58:16.305Z,16.95
